Time;durP1;ratioP1;P1;durP2;ratioP2;P2;SDS_P1;SDS_P2;PMS_P1;PMS_P2;Temp;Humidity;BMP_temperature;BMP_pressure;BME280_temperature;BME280_humidity;BME280_pressure;Samples;Min_cycle;Max_cycle;Signal;HPM_P1;HPM_P2
2022/04/20 00:00:37;;;;;;;11.20;4.80;;;17.30;54.20;;;;;;5064428;28;20032;-61
2022/04/20 00:03:02;;;;;;;13.98;5.60;;;17.20;54.20;;;;;;5060347;28;20027;-61
2022/04/20 00:05:32;;;;;;;19.48;5.70;;;17.20;54.30;;;;;;5063575;28;20020;-61
2022/04/20 00:07:57;;;;;;;13.05;4.93;;;17.20;54.30;;;;;;5047535;28;20024;-61
2022/04/20 00:10:23;;;;;;;14.68;4.60;;;17.20;54.30;;;;;;5065861;28;20032;-60
2022/04/20 00:12:48;;;;;;;10.35;4.85;;;17.20;54.30;;;;;;5082004;28;20036;-61
2022/04/20 00:15:14;;;;;;;15.45;5.05;;;17.20;54.30;;;;;;5063105;28;20024;-60
2022/04/20 00:17:39;;;;;;;13.25;5.00;;;17.20;54.30;;;;;;5046235;28;20252;-61
2022/04/20 00:20:05;;;;;;;12.82;4.78;;;17.20;54.40;;;;;;5081899;28;20047;-61
2022/04/20 00:22:31;;;;;;;13.07;4.55;;;17.10;54.40;;;;;;5046387;28;20036;-61
2022/04/20 00:24:56;;;;;;;13.00;4.40;;;17.10;54.50;;;;;;5062412;28;20035;-60
2022/04/20 00:27:22;;;;;;;8.38;4.13;;;17.10;54.50;;;;;;5045341;28;20032;-61
2022/04/20 00:29:47;;;;;;;12.30;4.10;;;17.00;54.50;;;;;;5080016;28;20152;-61
2022/04/20 00:32:13;;;;;;;10.38;4.25;;;17.00;54.70;;;;;;5048164;28;20548;-61
2022/04/20 00:34:38;;;;;;;8.18;3.80;;;16.90;54.70;;;;;;5065417;28;20035;-61
2022/04/20 00:37:04;;;;;;;5.45;3.65;;;16.90;54.80;;;;;;5086483;28;20111;-61
2022/04/20 00:39:30;;;;;;;10.68;3.88;;;16.90;54.80;;;;;;5067824;28;20516;-61
2022/04/20 00:41:55;;;;;;;9.85;3.25;;;16.90;54.90;;;;;;5049633;28;20295;-61
2022/04/20 00:44:21;;;;;;;10.98;3.67;;;16.80;54.90;;;;;;5067335;28;20199;-61
2022/04/20 00:46:47;;;;;;;8.80;3.58;;;16.80;54.90;;;;;;5033869;28;20382;-61
2022/04/20 00:49:13;;;;;;;11.88;4.07;;;16.80;55.00;;;;;;5067791;28;20028;-61
2022/04/20 00:51:50;;;;;;;8.88;3.55;;;16.80;55.00;;;;;;5065477;28;20359;-61
2022/04/20 00:54:15;;;;;;;13.90;4.30;;;16.80;55.70;;;;;;5073704;28;20028;-62
2022/04/20 00:56:41;;;;;;;9.15;3.83;;;16.70;55.10;;;;;;5048541;28;20135;-61
2022/04/20 00:59:06;;;;;;;7.53;3.63;;;16.70;55.20;;;;;;5068979;28;20036;-62
2022/04/20 01:01:32;;;;;;;9.30;3.85;;;16.70;55.20;;;;;;5048832;28;20203;-62
2022/04/20 01:03:57;;;;;;;5.60;3.47;;;16.70;55.30;;;;;;5084743;28;20074;-61
2022/04/20 01:06:23;;;;;;;7.78;2.88;;;16.70;55.40;;;;;;5065452;28;20435;-61
2022/04/20 01:08:49;;;;;;;9.75;3.47;;;16.60;55.30;;;;;;5067433;28;20112;-61
2022/04/20 01:11:14;;;;;;;7.15;3.05;;;16.60;55.30;;;;;;5083545;28;20081;-61
2022/04/20 01:13:40;;;;;;;6.90;3.22;;;16.60;55.40;;;;;;5084577;28;20586;-61
2022/04/20 01:16:05;;;;;;;6.70;3.30;;;16.60;55.40;;;;;;5084596;28;20028;-61
2022/04/20 01:18:31;;;;;;;7.45;3.45;;;16.60;55.50;;;;;;5068673;28;20043;-61
2022/04/20 01:20:56;;;;;;;9.07;3.90;;;16.60;55.60;;;;;;5067647;28;20414;-61
2022/04/20 01:23:22;;;;;;;6.78;4.22;;;16.50;55.60;;;;;;5079898;28;20028;-61
2022/04/20 01:25:47;;;;;;;9.45;4.78;;;16.40;55.60;;;;;;5069463;28;20036;-61
2022/04/20 01:28:15;;;;;;;7.47;3.92;;;16.40;55.80;;;;;;5062932;28;20043;-61
2022/04/20 01:30:40;;;;;;;4.80;4.03;;;16.40;55.80;;;;;;5067703;28;20043;-61
2022/04/20 01:33:06;;;;;;;12.40;3.78;;;16.40;55.90;;;;;;5064742;28;20530;-61
2022/04/20 01:35:31;;;;;;;7.72;3.70;;;16.40;56.00;;;;;;5068039;28;20028;-61
2022/04/20 01:37:57;;;;;;;8.70;3.53;;;16.30;56.00;;;;;;5064913;28;20028;-61
2022/04/20 01:40:22;;;;;;;5.80;3.35;;;16.30;56.10;;;;;;5082225;28;20020;-61
2022/04/20 01:42:48;;;;;;;7.60;3.40;;;16.30;56.10;;;;;;5067513;28;20039;-61
2022/04/20 01:45:13;;;;;;;6.43;3.10;;;16.20;56.10;;;;;;5065783;28;20408;-61
2022/04/20 01:47:39;;;;;;;4.22;2.63;;;16.20;56.20;;;;;;5064906;28;20036;-61
2022/04/20 01:50:05;;;;;;;5.50;3.60;;;16.20;56.20;;;;;;5084515;28;21217;-61
2022/04/20 01:52:32;;;;;;;6.35;3.45;;;16.10;56.30;;;;;;5049048;28;20036;-61
2022/04/20 01:54:58;;;;;;;6.32;2.90;;;16.10;56.40;;;;;;5064236;28;20123;-61
2022/04/20 01:57:23;;;;;;;6.05;3.08;;;16.10;56.40;;;;;;5083407;28;21851;-61
2022/04/20 01:59:49;;;;;;;8.00;3.00;;;16.10;56.30;;;;;;5061782;28;20030;-61
2022/04/20 02:04:58;;;;;;;4.82;2.70;;;16.10;56.50;;;;;;5068322;28;20107;-61
2022/04/20 02:07:24;;;;;;;7.50;3.35;;;16.10;56.50;;;;;;5086666;28;20051;-61
2022/04/20 02:09:50;;;;;;;5.05;2.63;;;16.10;56.50;;;;;;5065919;28;20020;-61
2022/04/20 02:12:15;;;;;;;3.30;2.35;;;16.00;56.50;;;;;;5033027;28;20030;-61
2022/04/20 02:14:41;;;;;;;7.13;2.55;;;16.00;56.50;;;;;;5081968;28;20036;-61
2022/04/20 02:17:06;;;;;;;8.70;2.50;;;16.00;56.50;;;;;;5064952;28;20028;-60
2022/04/20 02:19:32;;;;;;;5.38;2.75;;;16.00;56.60;;;;;;5081539;28;20058;-61
2022/04/20 02:21:57;;;;;;;8.50;2.80;;;15.90;56.60;;;;;;5084090;28;20566;-61
2022/04/20 02:24:23;;;;;;;7.95;2.83;;;15.90;56.70;;;;;;5082723;28;20039;-60
2022/04/20 02:26:48;;;;;;;5.57;2.42;;;15.90;56.70;;;;;;5065332;28;20483;-62
2022/04/20 02:29:14;;;;;;;7.03;2.80;;;15.80;56.80;;;;;;5064501;28;20050;-60
2022/04/20 02:31:39;;;;;;;4.05;2.90;;;15.90;56.80;;;;;;5064805;28;20069;-62
2022/04/20 02:34:05;;;;;;;4.65;2.55;;;15.80;56.90;;;;;;5082905;28;20111;-61
2022/04/20 02:36:31;;;;;;;9.70;2.42;;;15.80;57.00;;;;;;5047483;28;20036;-60
2022/04/20 02:38:57;;;;;;;6.65;2.38;;;15.80;57.00;;;;;;5062661;28;20490;-59
2022/04/20 02:41:22;;;;;;;6.97;2.30;;;15.70;57.00;;;;;;5063807;28;20047;-59
2022/04/20 02:43:48;;;;;;;7.30;2.90;;;15.70;57.10;;;;;;5048863;28;20036;-60
2022/04/20 02:46:14;;;;;;;3.10;2.38;;;15.70;57.10;;;;;;5063760;28;20073;-60
2022/04/20 02:48:40;;;;;;;4.35;2.10;;;15.70;57.20;;;;;;5065290;28;20676;-60
2022/04/20 02:51:06;;;;;;;4.07;2.30;;;15.60;57.20;;;;;;5067150;28;20042;-60
2022/04/20 02:53:31;;;;;;;3.25;2.13;;;15.60;57.20;;;;;;5066527;28;20016;-60
2022/04/20 02:55:57;;;;;;;4.32;2.10;;;15.60;57.30;;;;;;5080416;28;20036;-59
2022/04/20 02:58:22;;;;;;;5.45;2.10;;;15.50;57.30;;;;;;5064648;28;20356;-60
2022/04/20 03:00:48;;;;;;;6.63;2.22;;;15.50;57.40;;;;;;5063376;28;20690;-59
2022/04/20 03:03:14;;;;;;;4.35;2.10;;;15.50;57.40;;;;;;5048619;28;20090;-60
2022/04/20 03:05:39;;;;;;;7.63;2.35;;;15.50;57.40;;;;;;5062567;28;20028;-60
2022/04/20 03:08:05;;;;;;;4.65;2.22;;;15.50;57.50;;;;;;5079921;28;20078;-60
2022/04/20 03:10:31;;;;;;;6.28;2.08;;;15.50;57.50;;;;;;5063018;28;20051;-60
2022/04/20 03:12:56;;;;;;;3.90;2.03;;;15.40;57.40;;;;;;5082942;28;20064;-59
2022/04/20 03:15:22;;;;;;;4.00;2.50;;;15.40;57.40;;;;;;5049352;28;20626;-60
2022/04/20 03:17:47;;;;;;;3.65;2.03;;;15.40;57.50;;;;;;5083922;28;20044;-60
2022/04/20 03:20:13;;;;;;;3.13;2.00;;;15.30;57.50;;;;;;5064039;28;20169;-60
2022/04/20 03:22:39;;;;;;;3.28;2.33;;;15.30;57.60;;;;;;5064826;28;20127;-59
2022/04/20 03:25:05;;;;;;;4.53;3.50;;;15.30;57.50;;;;;;5045628;28;20175;-59
2022/04/20 03:27:31;;;;;;;6.90;4.68;;;15.30;57.60;;;;;;5062484;28;20576;-60
2022/04/20 03:29:56;;;;;;;5.85;4.45;;;15.30;57.60;;;;;;5081920;28;20032;-60
2022/04/20 03:32:22;;;;;;;4.10;2.85;;;15.20;57.60;;;;;;5063770;28;20032;-60
2022/04/20 03:34:47;;;;;;;4.55;2.80;;;15.20;57.70;;;;;;5063089;28;20024;-60
2022/04/20 03:37:13;;;;;;;4.25;2.90;;;15.20;57.70;;;;;;5082959;28;20031;-60
2022/04/20 03:39:38;;;;;;;6.75;3.05;;;15.20;57.60;;;;;;5049560;28;20744;-60
2022/04/20 03:42:04;;;;;;;4.80;2.78;;;15.20;57.70;;;;;;5064257;28;20565;-60
2022/04/20 03:44:31;;;;;;;3.30;2.47;;;15.20;57.70;;;;;;5048062;28;20055;-60
2022/04/20 03:46:56;;;;;;;3.22;2.78;;;15.10;57.70;;;;;;5029107;28;20067;-60
2022/04/20 03:49:22;;;;;;;4.60;2.72;;;15.10;57.60;;;;;;5062818;28;20108;-59
2022/04/20 03:51:47;;;;;;;3.30;2.60;;;15.10;57.70;;;;;;5080765;28;20050;-60
2022/04/20 03:54:13;;;;;;;3.35;2.60;;;15.10;57.80;;;;;;5063669;28;20501;-59
2022/04/20 03:59:23;;;;;;;4.85;2.40;;;15.00;57.80;;;;;;5081630;28;20101;-60
2022/04/20 04:01:49;;;;;;;3.90;2.05;;;15.00;57.80;;;;;;5048669;28;20102;-59
2022/04/20 04:04:15;;;;;;;22.25;3.50;;;15.00;57.90;;;;;;5082696;28;20095;-59
2022/04/20 04:06:40;;;;;;;8.13;2.78;;;15.00;58.00;;;;;;5081473;28;20439;-60
2022/04/20 04:09:06;;;;;;;16.90;4.35;;;14.90;58.00;;;;;;5062907;28;20028;-60
2022/04/20 04:11:31;;;;;;;11.65;3.00;;;14.90;58.10;;;;;;5046476;28;20032;-59
2022/04/20 04:13:57;;;;;;;16.77;3.65;;;14.90;58.40;;;;;;5044709;28;20043;-60
2022/04/20 04:16:22;;;;;;;16.08;3.60;;;14.90;58.60;;;;;;5079960;28;20032;-60
2022/04/20 04:18:48;;;;;;;16.65;3.80;;;14.90;58.80;;;;;;5082843;28;20024;-60
2022/04/20 04:21:13;;;;;;;26.20;3.80;;;14.80;58.70;;;;;;5063532;28;20036;-60
2022/04/20 04:23:39;;;;;;;13.43;3.58;;;14.80;58.70;;;;;;5064608;28;20379;-60
2022/04/20 04:26:04;;;;;;;15.73;4.47;;;14.80;58.70;;;;;;5062214;28;20033;-60
2022/04/20 04:28:30;;;;;;;19.88;4.50;;;14.80;58.70;;;;;;5080961;28;20024;-59
2022/04/20 04:30:55;;;;;;;13.73;4.85;;;14.70;58.60;;;;;;5061784;28;20136;-60
2022/04/20 04:33:21;;;;;;;27.83;5.05;;;14.90;58.70;;;;;;5064054;28;20464;-59
2022/04/20 04:35:46;;;;;;;31.92;5.05;;;14.80;58.70;;;;;;5062007;28;20483;-60
2022/04/20 04:38:13;;;;;;;22.15;5.32;;;14.80;58.70;;;;;;5046165;28;20562;-60
2022/04/20 04:40:39;;;;;;;24.25;5.68;;;14.70;58.70;;;;;;5078870;28;20555;-60
2022/04/20 04:43:04;;;;;;;22.70;5.55;;;14.70;58.70;;;;;;5063770;28;20039;-60
2022/04/20 04:50:58;;;;;;;30.92;5.22;;;14.70;58.80;;;;;;5065825;28;20174;-60
2022/04/20 04:53:24;;;;;;;29.15;5.78;;;14.70;58.80;;;;;;5080263;28;20481;-59
2022/04/20 04:55:49;;;;;;;30.77;4.57;;;14.60;58.80;;;;;;5079501;28;20028;-59
2022/04/20 04:58:15;;;;;;;25.92;4.95;;;14.60;58.90;;;;;;5079899;28;20107;-60
2022/04/20 05:00:40;;;;;;;25.23;5.00;;;14.60;58.90;;;;;;5080457;28;20036;-60
2022/04/20 05:03:08;;;;;;;30.45;5.22;;;14.50;58.90;;;;;;5061332;28;20127;-61
2022/04/20 05:05:33;;;;;;;22.48;4.57;;;14.50;59.10;;;;;;5046323;28;20032;-60
2022/04/20 05:07:59;;;;;;;31.30;4.93;;;14.50;59.30;;;;;;5045856;28;20551;-60
2022/04/20 05:10:24;;;;;;;17.58;4.72;;;14.40;59.30;;;;;;5047090;28;20058;-60
2022/04/20 05:12:50;;;;;;;20.77;4.53;;;14.40;59.50;;;;;;5047146;28;20032;-60
2022/04/20 05:15:16;;;;;;;31.23;5.57;;;14.40;59.50;;;;;;5044746;28;20032;-59
2022/04/20 05:17:41;;;;;;;16.67;4.28;;;14.40;59.60;;;;;;5060609;28;21350;-60
2022/04/20 05:20:08;;;;;;;18.92;5.13;;;14.30;59.60;;;;;;5062035;28;20074;-60
2022/04/20 05:22:33;;;;;;;24.42;4.75;;;14.30;59.60;;;;;;5047382;28;20446;-60
2022/04/20 05:24:59;;;;;;;11.82;3.83;;;14.30;59.60;;;;;;5062076;28;20031;-60
2022/04/20 05:27:24;;;;;;;15.32;4.05;;;14.30;59.70;;;;;;5029460;28;20086;-59
2022/04/20 05:29:50;;;;;;;22.67;4.40;;;14.20;59.70;;;;;;5061143;28;20075;-60
2022/04/20 05:32:15;;;;;;;12.50;4.07;;;14.30;59.70;;;;;;5066250;28;20145;-60
2022/04/20 05:34:41;;;;;;;22.23;4.72;;;14.20;59.70;;;;;;5065815;28;20059;-60
2022/04/20 05:42:36;;;;;;;17.52;4.43;;;14.20;59.80;;;;;;5082716;28;20403;-59
2022/04/20 05:45:02;;;;;;;15.88;3.72;;;14.20;59.80;;;;;;5083827;28;20063;-60
2022/04/20 05:47:28;;;;;;;15.00;4.65;;;14.10;59.70;;;;;;5064033;28;20039;-59
2022/04/20 05:49:54;;;;;;;15.40;4.10;;;14.20;59.90;;;;;;5065065;28;20024;-60
2022/04/20 05:52:20;;;;;;;15.02;4.13;;;14.20;59.80;;;;;;5063526;28;20360;-60
2022/04/20 05:54:45;;;;;;;13.18;3.85;;;14.10;59.70;;;;;;5065437;28;20043;-59
2022/04/20 05:57:11;;;;;;;11.90;3.92;;;14.10;59.70;;;;;;5065689;28;20031;-60
2022/04/20 05:59:36;;;;;;;9.90;3.70;;;14.10;59.70;;;;;;5064783;28;20032;-59
2022/04/20 06:02:02;;;;;;;7.20;3.22;;;14.10;59.70;;;;;;5064596;28;20102;-60
2022/04/20 06:04:29;;;;;;;14.55;3.88;;;14.10;59.80;;;;;;5048081;28;20411;-60
2022/04/20 06:06:54;;;;;;;10.55;3.67;;;14.00;59.70;;;;;;5065806;28;20267;-60
2022/04/20 06:09:20;;;;;;;9.75;3.40;;;14.00;59.70;;;;;;5048010;28;20448;-60
2022/04/20 06:11:46;;;;;;;15.10;3.75;;;14.00;59.70;;;;;;5047326;28;20028;-59
2022/04/20 06:14:11;;;;;;;11.05;3.42;;;13.90;59.70;;;;;;5065608;28;20142;-60
2022/04/20 06:16:37;;;;;;;11.52;3.38;;;13.90;59.80;;;;;;5083252;28;20032;-60
2022/04/20 06:19:02;;;;;;;14.50;3.13;;;13.90;59.90;;;;;;5065782;28;20115;-60
2022/04/20 06:21:28;;;;;;;8.88;3.53;;;13.90;59.80;;;;;;5083823;28;20028;-60
2022/04/20 06:23:53;;;;;;;10.88;3.08;;;13.80;59.80;;;;;;5082981;28;20039;-60
2022/04/20 06:26:19;;;;;;;6.85;2.90;;;13.90;59.90;;;;;;5079570;28;20031;-60
2022/04/20 06:28:44;;;;;;;5.03;2.80;;;13.80;59.90;;;;;;5081326;28;20044;-60
2022/04/20 06:31:10;;;;;;;8.85;3.30;;;13.80;60.00;;;;;;5063672;28;20044;-60
2022/04/20 06:33:35;;;;;;;4.43;2.90;;;13.80;60.00;;;;;;5045907;28;20056;-61
2022/04/20 06:36:01;;;;;;;10.27;3.08;;;13.80;60.00;;;;;;5080234;28;20156;-60
2022/04/20 06:38:27;;;;;;;5.85;2.85;;;13.70;60.00;;;;;;5077397;28;20053;-60
2022/04/20 06:40:53;;;;;;;7.55;2.55;;;13.70;60.00;;;;;;5060676;28;20032;-59
2022/04/20 06:43:19;;;;;;;14.85;2.92;;;13.70;60.00;;;;;;5077068;28;20126;-60
2022/04/20 06:45:45;;;;;;;12.00;3.35;;;13.70;60.00;;;;;;5075539;28;20050;-60
2022/04/20 06:48:11;;;;;;;5.82;3.00;;;13.60;60.00;;;;;;5080268;28;20016;-60
2022/04/20 06:50:39;;;;;;;11.75;3.20;;;13.60;60.00;;;;;;5061381;28;20074;-59
2022/04/20 06:58:35;;;;;;;13.35;3.22;;;13.60;60.20;;;;;;5076881;28;20549;-60
2022/04/20 07:01:01;;;;;;;8.63;3.13;;;13.60;60.20;;;;;;5079555;28;20114;-60
2022/04/20 07:03:27;;;;;;;9.57;3.38;;;13.50;60.20;;;;;;5077637;28;20042;-60
2022/04/20 07:05:52;;;;;;;9.50;2.92;;;13.60;60.30;;;;;;5077276;28;20032;-60
2022/04/20 07:08:19;;;;;;;12.60;3.22;;;13.60;60.30;;;;;;5052518;28;20016;-60
2022/04/20 07:10:44;;;;;;;8.20;3.30;;;13.60;60.30;;;;;;5075007;28;20039;-60
2022/04/20 07:13:12;;;;;;;10.60;3.85;;;13.50;60.20;;;;;;5077645;28;20078;-60
2022/04/20 07:15:37;;;;;;;10.88;3.60;;;13.50;60.20;;;;;;5077307;28;20032;-60
2022/04/20 07:18:04;;;;;;;10.05;3.10;;;13.50;60.30;;;;;;5060483;28;20062;-60
2022/04/20 07:20:30;;;;;;;7.78;3.55;;;13.50;60.30;;;;;;5046308;28;20435;-59
2022/04/20 07:22:55;;;;;;;13.43;3.53;;;13.50;60.30;;;;;;5077980;28;20040;-60
2022/04/20 07:25:21;;;;;;;10.30;3.53;;;13.40;60.40;;;;;;5066441;28;20024;-60
2022/04/20 07:27:48;;;;;;;15.95;3.85;;;13.50;60.40;;;;;;5078348;28;20103;-60
2022/04/20 07:30:14;;;;;;;15.38;3.65;;;13.40;60.40;;;;;;5078530;28;20054;-59
2022/04/20 07:32:40;;;;;;;16.23;3.60;;;13.40;60.40;;;;;;5041640;28;20070;-60
2022/04/20 07:35:05;;;;;;;15.15;3.38;;;13.40;60.40;;;;;;5060095;28;20666;-60
2022/04/20 07:37:31;;;;;;;19.80;3.88;;;13.40;61.00;;;;;;5058305;28;20035;-60
2022/04/20 07:39:57;;;;;;;16.67;3.75;;;13.50;60.40;;;;;;5061368;28;20130;-60
2022/04/20 07:42:22;;;;;;;16.77;3.80;;;13.50;60.40;;;;;;5077568;28;20562;-60
2022/04/20 07:44:48;;;;;;;10.95;3.38;;;13.40;60.40;;;;;;5054892;28;20055;-59
2022/04/20 07:47:13;;;;;;;10.57;3.78;;;13.50;60.40;;;;;;5043249;28;20028;-60
2022/04/20 07:52:23;;;;;;;10.02;3.53;;;13.40;60.50;;;;;;5076831;28;20031;-60
2022/04/20 07:54:49;;;;;;;14.85;3.40;;;13.40;60.40;;;;;;5051095;28;20036;-60
2022/04/20 07:57:15;;;;;;;15.70;3.80;;;13.50;60.50;;;;;;5053081;28;20074;-60
2022/04/20 07:59:41;;;;;;;21.08;4.60;;;13.40;60.60;;;;;;5064187;28;20020;-59
2022/04/20 08:02:07;;;;;;;21.25;3.53;;;13.40;60.70;;;;;;5042308;28;20028;-59
2022/04/20 08:04:33;;;;;;;18.08;4.35;;;13.40;60.60;;;;;;5073843;28;20597;-60
2022/04/20 08:06:58;;;;;;;16.83;4.80;;;13.40;60.70;;;;;;5075724;28;20395;-59
2022/04/20 08:09:24;;;;;;;28.20;4.28;;;13.40;60.70;;;;;;5077479;28;20367;-60
2022/04/20 08:11:50;;;;;;;21.40;4.00;;;13.40;60.80;;;;;;5075698;28;20041;-59
2022/04/20 08:14:16;;;;;;;24.67;4.97;;;13.40;60.80;;;;;;5076311;28;20078;-59
2022/04/20 08:16:42;;;;;;;20.70;4.72;;;13.40;60.80;;;;;;5056231;28;20476;-59
2022/04/20 08:19:08;;;;;;;35.30;5.07;;;13.40;60.90;;;;;;5041339;28;20047;-60
2022/04/20 08:21:34;;;;;;;43.30;6.03;;;13.50;60.90;;;;;;5065088;28;20158;-59
2022/04/20 08:24:00;;;;;;;55.10;6.03;;;13.40;61.00;;;;;;5057151;28;20907;-60
2022/04/20 08:26:25;;;;;;;38.50;6.20;;;13.50;61.00;;;;;;5075472;28;20024;-59
2022/04/20 08:28:51;;;;;;;34.45;5.85;;;13.50;60.90;;;;;;5042851;28;20181;-60
2022/04/20 08:31:16;;;;;;;34.55;5.28;;;13.50;61.00;;;;;;5069629;28;20079;-60
2022/04/20 08:33:42;;;;;;;31.70;5.88;;;13.50;60.90;;;;;;5053824;28;20056;-60
2022/04/20 08:36:11;;;;;;;31.60;5.75;;;13.50;61.00;;;;;;5032282;28;20036;-60
2022/04/20 08:38:38;;;;;;;30.20;5.50;;;13.50;60.90;;;;;;5020314;28;20048;-60
2022/04/20 08:41:03;;;;;;;59.17;7.70;;;13.50;60.90;;;;;;5045264;28;20029;-60
2022/04/20 08:43:29;;;;;;;55.90;7.53;;;13.50;60.90;;;;;;5033417;28;20020;-60
2022/04/20 08:45:55;;;;;;;51.88;7.13;;;13.50;60.90;;;;;;5038483;28;20039;-59
2022/04/20 08:48:20;;;;;;;42.63;6.25;;;13.50;61.00;;;;;;5020338;28;20044;-60
2022/04/20 08:50:46;;;;;;;53.88;6.43;;;13.50;61.00;;;;;;5023012;28;20024;-60
2022/04/20 08:53:12;;;;;;;51.75;6.88;;;13.60;61.00;;;;;;5016758;28;20076;-61
2022/04/20 08:55:37;;;;;;;54.40;6.95;;;13.60;60.80;;;;;;5044559;28;20740;-60
2022/04/20 08:58:04;;;;;;;50.97;7.78;;;13.60;60.70;;;;;;5025444;28;20384;-60
2022/04/20 09:00:29;;;;;;;74.80;10.27;;;13.60;60.60;;;;;;5018366;28;20028;-60
2022/04/20 09:02:56;;;;;;;80.32;10.95;;;13.60;60.80;;;;;;5051289;28;20045;-59
2022/04/20 09:05:23;;;;;;;87.55;10.57;;;13.60;60.80;;;;;;5038788;28;20032;-60
2022/04/20 09:07:48;;;;;;;65.20;9.63;;;13.60;60.90;;;;;;5038456;28;20052;-60
2022/04/20 09:10:16;;;;;;;85.40;10.07;;;13.70;60.90;;;;;;5036588;28;20067;-60
2022/04/20 09:12:42;;;;;;;88.20;11.98;;;13.70;60.80;;;;;;5033929;28;20123;-60
2022/04/20 09:15:09;;;;;;;121.53;13.45;;;13.70;60.70;;;;;;5053317;28;20017;-59
2022/04/20 09:17:44;;;;;;;104.25;13.13;;;13.70;61.10;;;;;;5039417;28;20656;-59
2022/04/20 09:20:15;;;;;;;119.30;12.75;;;13.70;60.90;;;;;;5038919;28;20067;-60
2022/04/20 09:22:40;;;;;;;119.22;15.43;;;13.80;60.80;;;;;;5007872;28;20369;-59
2022/04/20 09:25:08;;;;;;;116.47;16.33;;;13.80;61.00;;;;;;5054471;28;20040;-60
2022/04/20 09:27:37;;;;;;;108.85;14.10;;;13.80;61.20;;;;;;5022002;28;20052;-59
2022/04/20 09:30:04;;;;;;;111.80;14.35;;;13.80;61.00;;;;;;5037354;28;20021;-60
2022/04/20 09:32:31;;;;;;;121.45;14.82;;;13.80;60.80;;;;;;5066513;28;20135;-59
2022/04/20 09:34:58;;;;;;;124.13;16.10;;;13.80;60.80;;;;;;5059769;28;20089;-60
2022/04/20 09:37:24;;;;;;;132.60;15.88;;;13.80;60.60;;;;;;5030292;28;20112;-60
2022/04/20 09:39:50;;;;;;;126.60;16.45;;;13.90;60.80;;;;;;5063201;28;20130;-60
2022/04/20 09:42:16;;;;;;;142.27;18.50;;;13.90;60.70;;;;;;5052828;28;20027;-59
2022/04/20 09:45:08;;;;;;;118.32;16.73;;;13.90;60.80;;;;;;5041634;28;20864;-59
2022/04/20 09:50:25;;;;;;;158.18;18.40;;;14.00;61.40;;;;;;5042762;28;20046;-60
2022/04/20 09:52:55;;;;;;;141.30;18.75;;;14.10;61.10;;;;;;5037141;28;20091;-60
2022/04/20 09:55:31;;;;;;;119.22;17.50;;;14.10;61.70;;;;;;5037050;28;21166;-60
2022/04/20 09:58:19;;;;;;;161.02;18.38;;;14.10;60.70;;;;;;5054571;28;20085;-60
2022/04/20 10:00:54;;;;;;;139.63;17.02;;;14.10;60.80;;;;;;5051193;28;20035;-60
2022/04/20 10:03:31;;;;;;;157.88;20.02;;;14.10;60.70;;;;;;5022325;28;20983;-59
2022/04/20 10:05:56;;;;;;;160.18;21.10;;;14.20;60.80;;;;;;5057725;28;20179;-59
2022/04/20 10:08:23;;;;;;;185.23;19.70;;;14.20;60.80;;;;;;5024915;28;20025;-59
2022/04/20 10:10:49;;;;;;;127.03;17.80;;;14.30;60.70;;;;;;5058601;28;20027;-60
2022/04/20 10:13:15;;;;;;;133.63;18.75;;;14.20;60.60;;;;;;5042361;28;20032;-61
2022/04/20 10:18:25;;;;;;;175.45;20.60;;;14.30;60.70;;;;;;5033004;28;20202;-61
2022/04/20 10:20:55;;;;;;;141.77;19.30;;;14.30;60.70;;;;;;5017108;28;20031;-60
2022/04/20 10:23:22;;;;;;;128.38;18.23;;;14.30;60.70;;;;;;5060592;28;20031;-61
2022/04/20 10:25:53;;;;;;;132.35;16.98;;;14.30;60.70;;;;;;5077266;28;20085;-61
2022/04/20 10:28:36;;;;;;;133.75;17.38;;;14.30;60.60;;;;;;5078230;28;20032;-61
2022/04/20 10:31:28;;;;;;;132.55;16.83;;;14.40;60.70;;;;;;5027854;28;20029;-61
2022/04/20 10:33:54;;;;;;;200.95;23.17;;;14.40;60.60;;;;;;5052538;28;20047;-61
2022/04/20 10:36:28;;;;;;;221.93;26.95;;;14.50;60.90;;;;;;5058762;28;20032;-60
2022/04/20 10:39:23;;;;;;;173.57;20.88;;;14.40;61.00;;;;;;5061788;28;20035;-61
2022/04/20 10:42:17;;;;;;;141.05;17.45;;;14.50;60.90;;;;;;5078246;28;20046;-61
2022/04/20 10:45:03;;;;;;;163.75;19.60;;;14.50;60.80;;;;;;5076066;28;20114;-61
2022/04/20 10:47:32;;;;;;;192.98;23.50;;;14.60;60.80;;;;;;5081042;28;20119;-61
2022/04/20 10:50:16;;;;;;;174.15;19.95;;;14.60;60.90;;;;;;5064242;28;20042;-62
2022/04/20 10:53:03;;;;;;;158.85;17.02;;;14.60;60.70;;;;;;5082092;28;20647;-61
2022/04/20 10:55:49;;;;;;;103.47;15.65;;;14.70;60.50;;;;;;5065491;28;20117;-61
2022/04/20 10:58:22;;;;;;;98.00;15.70;;;14.60;60.40;;;;;;5064105;28;20036;-60
2022/04/20 11:00:47;;;;;;;114.45;14.95;;;14.70;60.40;;;;;;5060671;28;20052;-61
2022/04/20 11:03:13;;;;;;;196.15;18.95;;;14.80;60.50;;;;;;5049749;28;20074;-60
2022/04/20 11:05:57;;;;;;;103.25;12.77;;;14.80;60.60;;;;;;5047584;28;20027;-61
2022/04/20 11:08:24;;;;;;;70.40;11.32;;;14.80;60.30;;;;;;5054693;28;20017;-61
2022/04/20 11:19:20;;;;;;;96.47;12.70;;;15.00;60.00;;;;;;5058067;28;20351;-61
2022/04/20 11:22:07;;;;;;;90.63;13.85;;;15.10;59.90;;;;;;5051338;28;20024;-61
2022/04/20 11:24:33;;;;;;;90.80;13.00;;;15.10;59.80;;;;;;5051416;28;20043;-61
2022/04/20 11:26:59;;;;;;;73.30;10.30;;;15.20;59.80;;;;;;5073101;28;20412;-62
2022/04/20 11:29:25;;;;;;;58.20;9.13;;;15.30;59.60;;;;;;5054729;28;20031;-61
2022/04/20 11:31:58;;;;;;;74.20;9.98;;;15.30;59.40;;;;;;5058869;28;20040;-61
2022/04/20 11:34:24;;;;;;;55.67;9.48;;;15.40;59.10;;;;;;5060224;28;20036;-61
2022/04/20 11:36:51;;;;;;;75.72;10.25;;;15.40;59.30;;;;;;5067492;28;20287;-61
2022/04/20 11:39:18;;;;;;;80.35;9.90;;;15.60;59.10;;;;;;5031487;28;20398;-62
2022/04/20 11:41:45;;;;;;;60.67;8.35;;;15.60;58.80;;;;;;5046311;28;20077;-61
2022/04/20 11:44:24;;;;;;;56.17;8.55;;;15.70;58.60;;;;;;5037991;28;20138;-61
2022/04/20 11:46:50;;;;;;;61.05;8.25;;;15.70;58.50;;;;;;5049227;28;20031;-61
2022/04/20 11:49:16;;;;;;;47.72;7.75;;;15.80;58.50;;;;;;5053003;28;20032;-61
2022/04/20 11:51:46;;;;;;;53.95;8.50;;;15.90;58.30;;;;;;5070481;28;20050;-61
2022/04/20 11:54:18;;;;;;;55.75;8.52;;;15.90;58.10;;;;;;5051455;28;20012;-64
2022/04/20 11:56:44;;;;;;;54.92;8.05;;;16.00;57.90;;;;;;5068108;28;20051;-61
2022/04/20 11:59:09;;;;;;;54.45;7.13;;;16.10;57.90;;;;;;5057506;28;20751;-60
2022/04/20 12:01:36;;;;;;;48.33;7.18;;;16.20;57.80;;;;;;5061121;28;20024;-60
2022/04/20 12:04:19;;;;;;;48.20;6.22;;;16.20;57.50;;;;;;5048615;28;21000;-61
2022/04/20 12:06:55;;;;;;;40.90;7.32;;;16.30;57.30;;;;;;5053613;28;20036;-61
2022/04/20 12:09:25;;;;;;;44.10;6.25;;;16.40;57.10;;;;;;5066336;28;20063;-60
2022/04/20 12:11:54;;;;;;;52.22;7.07;;;16.50;57.20;;;;;;5069948;28;20107;-61
2022/04/20 12:14:22;;;;;;;36.13;5.43;;;16.50;56.90;;;;;;5077131;28;20041;-60
2022/04/20 12:16:48;;;;;;;36.33;5.68;;;16.60;56.90;;;;;;5059029;28;20069;-61
2022/04/20 12:19:13;;;;;;;42.60;7.07;;;16.70;56.70;;;;;;5024982;28;20713;-61
2022/04/20 12:21:46;;;;;;;44.78;6.50;;;16.80;56.60;;;;;;5051198;28;20496;-61
2022/04/20 12:24:25;;;;;;;44.22;6.00;;;16.80;56.40;;;;;;5054255;28;20139;-62
2022/04/20 12:26:51;;;;;;;44.63;6.07;;;16.90;56.20;;;;;;5071155;28;20064;-61
2022/04/20 12:29:20;;;;;;;42.38;7.43;;;17.00;56.00;;;;;;5069522;28;20072;-61
2022/04/20 12:31:47;;;;;;;45.58;7.07;;;17.10;55.80;;;;;;5040036;28;20048;-61
2022/04/20 12:34:15;;;;;;;55.55;7.03;;;17.20;55.70;;;;;;5052619;28;20680;-61
2022/04/20 12:36:59;;;;;;;77.03;8.27;;;17.20;55.60;;;;;;5026705;28;20040;-61
2022/04/20 12:39:26;;;;;;;89.40;9.63;;;17.20;55.30;;;;;;5023237;28;20097;-61
2022/04/20 12:42:07;;;;;;;74.40;9.25;;;17.50;55.40;;;;;;5036775;28;21121;-61
2022/04/20 12:44:36;;;;;;;64.22;9.45;;;17.40;55.10;;;;;;5050364;28;20100;-61
2022/04/20 12:47:07;;;;;;;57.58;8.07;;;17.50;55.10;;;;;;5068360;28;20016;-61
2022/04/20 12:49:33;;;;;;;73.30;8.60;;;17.50;54.90;;;;;;5054859;28;20028;-61
2022/04/20 12:52:06;;;;;;;64.78;9.07;;;17.50;54.70;;;;;;5053613;28;20040;-61
2022/04/20 12:54:32;;;;;;;62.47;7.88;;;17.60;54.70;;;;;;5070662;28;20090;-61
2022/04/20 13:02:26;;;;;;;89.53;11.43;;;17.80;54.20;;;;;;5064408;28;20494;-62
2022/04/20 13:04:52;;;;;;;115.80;12.30;;;17.90;54.00;;;;;;5055132;28;20040;-62
2022/04/20 13:07:17;;;;;;;78.43;11.27;;;17.90;53.90;;;;;;5056701;28;20055;-62
2022/04/20 13:09:43;;;;;;;94.35;11.25;;;18.00;53.70;;;;;;5067290;28;20028;-61
2022/04/20 13:12:09;;;;;;;78.90;9.85;;;18.10;53.60;;;;;;5053069;28;20052;-62
2022/04/20 13:14:35;;;;;;;76.05;10.85;;;18.20;53.50;;;;;;5067010;28;20143;-62
2022/04/20 13:17:01;;;;;;;81.90;9.60;;;18.20;53.50;;;;;;5054007;28;20650;-62
2022/04/20 13:19:26;;;;;;;78.53;9.70;;;18.30;53.40;;;;;;5058905;28;20058;-61